sensor_id;sensor_type;location;lat;lon;timestamp;P1;durP1;ratioP1;P2;durP2;ratioP2
43606;SDS011;29197;44.788;10.366;2023-11-19T00:02:24;2.53;;;1.90;;
43606;SDS011;29197;44.788;10.366;2023-11-19T00:05:13;5.73;;;2.53;;
43606;SDS011;29197;44.788;10.366;2023-11-19T00:08:02;3.93;;;2.07;;
43606;SDS011;29197;44.788;10.366;2023-11-19T00:10:52;4.00;;;2.22;;
43606;SDS011;29197;44.788;10.366;2023-11-19T00:13:42;2.70;;;1.87;;
43606;SDS011;29197;44.788;10.366;2023-11-19T00:16:31;4.20;;;2.40;;
43606;SDS011;29197;44.788;10.366;2023-11-19T00:19:19;3.63;;;2.40;;
43606;SDS011;29197;44.788;10.366;2023-11-19T00:22:08;3.73;;;2.13;;
43606;SDS011;29197;44.788;10.366;2023-11-19T00:24:56;6.55;;;2.97;;
43606;SDS011;29197;44.788;10.366;2023-11-19T00:27:46;4.80;;;2.80;;
43606;SDS011;29197;44.788;10.366;2023-11-19T00:30:36;4.27;;;2.40;;
43606;SDS011;29197;44.788;10.366;2023-11-19T00:33:24;5.20;;;2.37;;
43606;SDS011;29197;44.788;10.366;2023-11-19T00:36:13;4.20;;;2.57;;
43606;SDS011;29197;44.788;10.366;2023-11-19T00:39:02;3.73;;;2.60;;
43606;SDS011;29197;44.788;10.366;2023-11-19T00:41:50;4.10;;;2.60;;
43606;SDS011;29197;44.788;10.366;2023-11-19T00:44:39;5.03;;;2.87;;
43606;SDS011;29197;44.788;10.366;2023-11-19T00:47:38;5.03;;;3.10;;
43606;SDS011;29197;44.788;10.366;2023-11-19T00:50:27;5.47;;;2.60;;
43606;SDS011;29197;44.788;10.366;2023-11-19T00:53:20;4.63;;;3.00;;
43606;SDS011;29197;44.788;10.366;2023-11-19T00:56:10;5.40;;;3.13;;
43606;SDS011;29197;44.788;10.366;2023-11-19T00:59:00;6.67;;;3.53;;
43606;SDS011;29197;44.788;10.366;2023-11-19T01:01:48;6.43;;;2.97;;
43606;SDS011;29197;44.788;10.366;2023-11-19T01:04:39;5.33;;;2.90;;
43606;SDS011;29197;44.788;10.366;2023-11-19T01:07:28;4.57;;;3.00;;
43606;SDS011;29197;44.788;10.366;2023-11-19T01:10:16;4.27;;;2.60;;
43606;SDS011;29197;44.788;10.366;2023-11-19T01:13:05;3.57;;;2.50;;
43606;SDS011;29197;44.788;10.366;2023-11-19T01:15:54;5.63;;;2.53;;
43606;SDS011;29197;44.788;10.366;2023-11-19T01:18:43;5.53;;;2.67;;
43606;SDS011;29197;44.788;10.366;2023-11-19T01:21:33;3.87;;;2.57;;
43606;SDS011;29197;44.788;10.366;2023-11-19T01:24:22;2.33;;;1.93;;
43606;SDS011;29197;44.788;10.366;2023-11-19T01:27:11;4.90;;;2.43;;
43606;SDS011;29197;44.788;10.366;2023-11-19T01:29:59;2.93;;;2.23;;
43606;SDS011;29197;44.788;10.366;2023-11-19T01:32:50;2.87;;;2.17;;
43606;SDS011;29197;44.788;10.366;2023-11-19T01:36:16;4.07;;;2.00;;
43606;SDS011;29197;44.788;10.366;2023-11-19T01:38:56;4.03;;;2.47;;
43606;SDS011;29197;44.788;10.366;2023-11-19T01:41:45;9.40;;;2.80;;
43606;SDS011;29197;44.788;10.366;2023-11-19T01:44:33;3.13;;;2.43;;
43606;SDS011;29197;44.788;10.366;2023-11-19T01:47:22;4.77;;;2.23;;
43606;SDS011;29197;44.788;10.366;2023-11-19T01:50:11;4.67;;;2.20;;
43606;SDS011;29197;44.788;10.366;2023-11-19T01:53:00;2.90;;;2.10;;
43606;SDS011;29197;44.788;10.366;2023-11-19T01:55:50;3.33;;;2.20;;
43606;SDS011;29197;44.788;10.366;2023-11-19T01:58:40;6.20;;;2.30;;
43606;SDS011;29197;44.788;10.366;2023-11-19T02:01:29;2.60;;;2.13;;
43606;SDS011;29197;44.788;10.366;2023-11-19T02:04:19;5.20;;;2.83;;
43606;SDS011;29197;44.788;10.366;2023-11-19T02:07:08;3.33;;;2.00;;
43606;SDS011;29197;44.788;10.366;2023-11-19T02:09:57;5.50;;;2.30;;
43606;SDS011;29197;44.788;10.366;2023-11-19T02:12:49;5.87;;;2.77;;
43606;SDS011;29197;44.788;10.366;2023-11-19T02:15:38;5.37;;;2.27;;
43606;SDS011;29197;44.788;10.366;2023-11-19T02:18:28;4.63;;;2.17;;
43606;SDS011;29197;44.788;10.366;2023-11-19T02:21:17;4.30;;;2.20;;
43606;SDS011;29197;44.788;10.366;2023-11-19T02:24:06;3.80;;;2.00;;
43606;SDS011;29197;44.788;10.366;2023-11-19T02:26:59;5.37;;;2.30;;
43606;SDS011;29197;44.788;10.366;2023-11-19T02:29:53;5.80;;;2.60;;
43606;SDS011;29197;44.788;10.366;2023-11-19T02:32:42;3.17;;;1.83;;
43606;SDS011;29197;44.788;10.366;2023-11-19T02:35:31;3.27;;;2.10;;
43606;SDS011;29197;44.788;10.366;2023-11-19T02:38:20;6.33;;;2.23;;
43606;SDS011;29197;44.788;10.366;2023-11-19T02:41:09;4.70;;;2.00;;
43606;SDS011;29197;44.788;10.366;2023-11-19T02:43:58;2.57;;;1.63;;
43606;SDS011;29197;44.788;10.366;2023-11-19T02:46:49;2.53;;;1.70;;
43606;SDS011;29197;44.788;10.366;2023-11-19T02:49:38;3.33;;;2.10;;
43606;SDS011;29197;44.788;10.366;2023-11-19T02:52:26;3.77;;;2.20;;
43606;SDS011;29197;44.788;10.366;2023-11-19T02:55:15;3.33;;;2.10;;
43606;SDS011;29197;44.788;10.366;2023-11-19T02:58:04;4.47;;;1.83;;
43606;SDS011;29197;44.788;10.366;2023-11-19T03:00:58;2.83;;;1.77;;
43606;SDS011;29197;44.788;10.366;2023-11-19T03:03:59;3.47;;;1.80;;
43606;SDS011;29197;44.788;10.366;2023-11-19T03:06:50;2.87;;;1.73;;
43606;SDS011;29197;44.788;10.366;2023-11-19T03:09:40;4.53;;;2.03;;
43606;SDS011;29197;44.788;10.366;2023-11-19T03:12:30;4.07;;;2.00;;
43606;SDS011;29197;44.788;10.366;2023-11-19T03:15:19;3.80;;;1.77;;
43606;SDS011;29197;44.788;10.366;2023-11-19T03:18:08;3.20;;;1.60;;
43606;SDS011;29197;44.788;10.366;2023-11-19T03:20:58;3.20;;;1.97;;
43606;SDS011;29197;44.788;10.366;2023-11-19T03:23:46;4.00;;;1.80;;
43606;SDS011;29197;44.788;10.366;2023-11-19T03:26:35;1.67;;;1.53;;
43606;SDS011;29197;44.788;10.366;2023-11-19T03:29:23;3.57;;;2.00;;
43606;SDS011;29197;44.788;10.366;2023-11-19T03:32:13;2.40;;;1.80;;
43606;SDS011;29197;44.788;10.366;2023-11-19T03:35:02;2.00;;;1.80;;
43606;SDS011;29197;44.788;10.366;2023-11-19T03:37:52;3.70;;;1.80;;
43606;SDS011;29197;44.788;10.366;2023-11-19T03:40:41;2.53;;;1.77;;
43606;SDS011;29197;44.788;10.366;2023-11-19T03:43:30;1.60;;;1.33;;
43606;SDS011;29197;44.788;10.366;2023-11-19T03:46:20;2.07;;;1.87;;
43606;SDS011;29197;44.788;10.366;2023-11-19T03:49:09;2.10;;;1.30;;
43606;SDS011;29197;44.788;10.366;2023-11-19T03:51:58;2.87;;;1.53;;
43606;SDS011;29197;44.788;10.366;2023-11-19T03:54:49;1.67;;;1.20;;
43606;SDS011;29197;44.788;10.366;2023-11-19T03:57:38;2.33;;;1.33;;
43606;SDS011;29197;44.788;10.366;2023-11-19T04:00:27;2.03;;;1.43;;
43606;SDS011;29197;44.788;10.366;2023-11-19T04:03:16;2.10;;;1.40;;
43606;SDS011;29197;44.788;10.366;2023-11-19T04:06:06;1.47;;;1.30;;
43606;SDS011;29197;44.788;10.366;2023-11-19T04:08:56;1.53;;;1.20;;
43606;SDS011;29197;44.788;10.366;2023-11-19T04:11:46;1.30;;;1.13;;
43606;SDS011;29197;44.788;10.366;2023-11-19T04:14:36;2.10;;;1.47;;
43606;SDS011;29197;44.788;10.366;2023-11-19T04:17:24;1.53;;;1.20;;
43606;SDS011;29197;44.788;10.366;2023-11-19T04:20:13;2.03;;;1.53;;
43606;SDS011;29197;44.788;10.366;2023-11-19T04:23:02;3.43;;;1.63;;
43606;SDS011;29197;44.788;10.366;2023-11-19T04:25:51;2.20;;;1.50;;
43606;SDS011;29197;44.788;10.366;2023-11-19T04:28:41;2.10;;;1.37;;
43606;SDS011;29197;44.788;10.366;2023-11-19T04:31:30;1.43;;;1.10;;
43606;SDS011;29197;44.788;10.366;2023-11-19T04:34:19;4.00;;;1.50;;
43606;SDS011;29197;44.788;10.366;2023-11-19T04:37:08;2.13;;;1.33;;
43606;SDS011;29197;44.788;10.366;2023-11-19T04:39:59;2.00;;;1.47;;
43606;SDS011;29197;44.788;10.366;2023-11-19T04:42:48;4.80;;;1.40;;
43606;SDS011;29197;44.788;10.366;2023-11-19T04:45:38;2.30;;;1.40;;
43606;SDS011;29197;44.788;10.366;2023-11-19T04:48:27;1.67;;;1.13;;
43606;SDS011;29197;44.788;10.366;2023-11-19T04:51:28;1.97;;;1.10;;
43606;SDS011;29197;44.788;10.366;2023-11-19T04:54:17;3.00;;;1.50;;
43606;SDS011;29197;44.788;10.366;2023-11-19T04:57:05;2.73;;;1.53;;
43606;SDS011;29197;44.788;10.366;2023-11-19T04:59:56;2.53;;;1.20;;
43606;SDS011;29197;44.788;10.366;2023-11-19T05:02:46;2.03;;;1.40;;
43606;SDS011;29197;44.788;10.366;2023-11-19T05:05:35;2.93;;;1.30;;
43606;SDS011;29197;44.788;10.366;2023-11-19T05:08:24;1.83;;;1.23;;
43606;SDS011;29197;44.788;10.366;2023-11-19T05:11:12;3.23;;;1.50;;
43606;SDS011;29197;44.788;10.366;2023-11-19T05:14:04;2.20;;;1.37;;
43606;SDS011;29197;44.788;10.366;2023-11-19T05:16:53;1.37;;;1.20;;
43606;SDS011;29197;44.788;10.366;2023-11-19T05:19:43;4.10;;;1.67;;
43606;SDS011;29197;44.788;10.366;2023-11-19T05:22:32;3.80;;;1.60;;
43606;SDS011;29197;44.788;10.366;2023-11-19T05:25:20;2.30;;;1.30;;
43606;SDS011;29197;44.788;10.366;2023-11-19T05:28:09;2.57;;;1.33;;
43606;SDS011;29197;44.788;10.366;2023-11-19T05:30:58;2.90;;;1.70;;
43606;SDS011;29197;44.788;10.366;2023-11-19T05:33:46;4.17;;;1.50;;
43606;SDS011;29197;44.788;10.366;2023-11-19T05:36:36;4.67;;;1.47;;
43606;SDS011;29197;44.788;10.366;2023-11-19T05:39:27;2.93;;;1.83;;
43606;SDS011;29197;44.788;10.366;2023-11-19T05:42:16;2.80;;;1.30;;
43606;SDS011;29197;44.788;10.366;2023-11-19T05:45:05;3.07;;;1.53;;
43606;SDS011;29197;44.788;10.366;2023-11-19T05:47:55;2.07;;;1.40;;
43606;SDS011;29197;44.788;10.366;2023-11-19T05:50:44;1.40;;;1.17;;
43606;SDS011;29197;44.788;10.366;2023-11-19T05:53:34;2.87;;;1.20;;
43606;SDS011;29197;44.788;10.366;2023-11-19T05:56:22;1.80;;;1.33;;
43606;SDS011;29197;44.788;10.366;2023-11-19T05:59:12;2.53;;;1.53;;
43606;SDS011;29197;44.788;10.366;2023-11-19T06:02:04;2.50;;;1.67;;
43606;SDS011;29197;44.788;10.366;2023-11-19T06:04:53;1.30;;;1.20;;
43606;SDS011;29197;44.788;10.366;2023-11-19T06:07:42;2.37;;;1.40;;
43606;SDS011;29197;44.788;10.366;2023-11-19T06:10:32;1.83;;;1.20;;
43606;SDS011;29197;44.788;10.366;2023-11-19T06:13:20;2.97;;;1.73;;
43606;SDS011;29197;44.788;10.366;2023-11-19T06:16:11;1.83;;;1.40;;
43606;SDS011;29197;44.788;10.366;2023-11-19T06:19:00;3.73;;;1.33;;
43606;SDS011;29197;44.788;10.366;2023-11-19T06:21:49;1.90;;;1.57;;
43606;SDS011;29197;44.788;10.366;2023-11-19T06:24:37;2.53;;;1.40;;
43606;SDS011;29197;44.788;10.366;2023-11-19T06:27:29;2.43;;;1.57;;
43606;SDS011;29197;44.788;10.366;2023-11-19T06:30:17;1.60;;;1.50;;
43606;SDS011;29197;44.788;10.366;2023-11-19T06:33:06;3.47;;;1.50;;
43606;SDS011;29197;44.788;10.366;2023-11-19T06:35:55;2.37;;;1.63;;
43606;SDS011;29197;44.788;10.366;2023-11-19T06:38:43;2.37;;;1.13;;
43606;SDS011;29197;44.788;10.366;2023-11-19T06:41:32;2.90;;;1.43;;
43606;SDS011;29197;44.788;10.366;2023-11-19T06:44:22;1.43;;;1.30;;
43606;SDS011;29197;44.788;10.366;2023-11-19T06:47:11;3.87;;;1.47;;
43606;SDS011;29197;44.788;10.366;2023-11-19T06:50:00;3.37;;;1.63;;
43606;SDS011;29197;44.788;10.366;2023-11-19T06:52:52;4.77;;;1.40;;
43606;SDS011;29197;44.788;10.366;2023-11-19T06:55:40;4.00;;;2.37;;
43606;SDS011;29197;44.788;10.366;2023-11-19T06:58:29;3.00;;;1.50;;
43606;SDS011;29197;44.788;10.366;2023-11-19T07:01:19;3.60;;;1.83;;
43606;SDS011;29197;44.788;10.366;2023-11-19T07:04:08;2.77;;;1.50;;
43606;SDS011;29197;44.788;10.366;2023-11-19T07:06:59;3.37;;;2.00;;
43606;SDS011;29197;44.788;10.366;2023-11-19T07:09:48;4.17;;;1.93;;
43606;SDS011;29197;44.788;10.366;2023-11-19T07:12:36;3.40;;;1.50;;
43606;SDS011;29197;44.788;10.366;2023-11-19T07:15:25;2.37;;;1.70;;
43606;SDS011;29197;44.788;10.366;2023-11-19T07:18:15;2.13;;;1.50;;
43606;SDS011;29197;44.788;10.366;2023-11-19T07:21:04;4.10;;;2.60;;
43606;SDS011;29197;44.788;10.366;2023-11-19T07:23:54;2.37;;;1.93;;
43606;SDS011;29197;44.788;10.366;2023-11-19T07:26:43;3.27;;;2.00;;
43606;SDS011;29197;44.788;10.366;2023-11-19T07:29:32;2.47;;;1.83;;
43606;SDS011;29197;44.788;10.366;2023-11-19T07:32:23;3.03;;;2.00;;
43606;SDS011;29197;44.788;10.366;2023-11-19T07:35:13;3.37;;;2.00;;
43606;SDS011;29197;44.788;10.366;2023-11-19T07:38:02;6.53;;;2.40;;
43606;SDS011;29197;44.788;10.366;2023-11-19T07:40:51;3.43;;;1.80;;
43606;SDS011;29197;44.788;10.366;2023-11-19T07:43:43;3.03;;;2.08;;
43606;SDS011;29197;44.788;10.366;2023-11-19T07:46:33;10.27;;;3.53;;
43606;SDS011;29197;44.788;10.366;2023-11-19T07:49:21;6.33;;;3.33;;
43606;SDS011;29197;44.788;10.366;2023-11-19T07:52:11;5.50;;;2.10;;
43606;SDS011;29197;44.788;10.366;2023-11-19T07:55:03;3.00;;;2.10;;
43606;SDS011;29197;44.788;10.366;2023-11-19T07:57:52;2.83;;;2.23;;
43606;SDS011;29197;44.788;10.366;2023-11-19T08:00:41;4.97;;;2.57;;
43606;SDS011;29197;44.788;10.366;2023-11-19T08:03:30;3.67;;;2.40;;
43606;SDS011;29197;44.788;10.366;2023-11-19T08:06:21;2.97;;;2.17;;
43606;SDS011;29197;44.788;10.366;2023-11-19T08:09:11;3.63;;;2.60;;
43606;SDS011;29197;44.788;10.366;2023-11-19T08:12:00;4.07;;;2.47;;
43606;SDS011;29197;44.788;10.366;2023-11-19T08:14:50;3.53;;;2.37;;
43606;SDS011;29197;44.788;10.366;2023-11-19T08:17:39;6.63;;;3.53;;
43606;SDS011;29197;44.788;10.366;2023-11-19T08:20:27;6.28;;;3.50;;
43606;SDS011;29197;44.788;10.366;2023-11-19T08:23:16;8.03;;;3.57;;
43606;SDS011;29197;44.788;10.366;2023-11-19T08:26:06;6.40;;;3.60;;
43606;SDS011;29197;44.788;10.366;2023-11-19T08:28:55;5.67;;;3.50;;
43606;SDS011;29197;44.788;10.366;2023-11-19T08:31:44;6.07;;;3.58;;
43606;SDS011;29197;44.788;10.366;2023-11-19T08:34:33;6.77;;;3.90;;
43606;SDS011;29197;44.788;10.366;2023-11-19T08:37:21;6.55;;;2.80;;
43606;SDS011;29197;44.788;10.366;2023-11-19T08:40:13;6.87;;;3.47;;
43606;SDS011;29197;44.788;10.366;2023-11-19T08:43:03;8.20;;;3.67;;
43606;SDS011;29197;44.788;10.366;2023-11-19T08:45:53;5.70;;;3.42;;
43606;SDS011;29197;44.788;10.366;2023-11-19T08:48:41;5.78;;;3.90;;
43606;SDS011;29197;44.788;10.366;2023-11-19T08:51:30;6.13;;;3.70;;
43606;SDS011;29197;44.788;10.366;2023-11-19T08:54:18;7.03;;;3.88;;
43606;SDS011;29197;44.788;10.366;2023-11-19T08:57:09;5.57;;;3.90;;
43606;SDS011;29197;44.788;10.366;2023-11-19T08:59:59;6.03;;;4.22;;
43606;SDS011;29197;44.788;10.366;2023-11-19T09:02:47;6.95;;;4.22;;
43606;SDS011;29197;44.788;10.366;2023-11-19T09:05:36;6.57;;;4.07;;
43606;SDS011;29197;44.788;10.366;2023-11-19T09:08:25;7.38;;;4.82;;
43606;SDS011;29197;44.788;10.366;2023-11-19T09:11:14;6.93;;;4.55;;
43606;SDS011;29197;44.788;10.366;2023-11-19T09:14:02;7.53;;;4.45;;
43606;SDS011;29197;44.788;10.366;2023-11-19T09:16:52;7.70;;;4.60;;
43606;SDS011;29197;44.788;10.366;2023-11-19T09:19:42;8.85;;;5.00;;
43606;SDS011;29197;44.788;10.366;2023-11-19T09:22:31;7.20;;;5.07;;
43606;SDS011;29197;44.788;10.366;2023-11-19T09:25:19;8.38;;;5.75;;
43606;SDS011;29197;44.788;10.366;2023-11-19T09:28:08;9.07;;;5.78;;
43606;SDS011;29197;44.788;10.366;2023-11-19T09:30:57;11.30;;;6.22;;
43606;SDS011;29197;44.788;10.366;2023-11-19T09:33:47;8.82;;;6.10;;
43606;SDS011;29197;44.788;10.366;2023-11-19T09:36:36;8.35;;;6.22;;
43606;SDS011;29197;44.788;10.366;2023-11-19T09:39:24;10.60;;;6.32;;
43606;SDS011;29197;44.788;10.366;2023-11-19T09:42:13;10.43;;;6.85;;
43606;SDS011;29197;44.788;10.366;2023-11-19T09:45:02;10.27;;;7.30;;
43606;SDS011;29197;44.788;10.366;2023-11-19T09:47:58;12.02;;;8.02;;
43606;SDS011;29197;44.788;10.366;2023-11-19T09:50:50;11.63;;;7.90;;
43606;SDS011;29197;44.788;10.366;2023-11-19T09:53:40;10.20;;;6.30;;
43606;SDS011;29197;44.788;10.366;2023-11-19T09:56:29;10.70;;;6.97;;
43606;SDS011;29197;44.788;10.366;2023-11-19T09:59:17;9.75;;;7.07;;
43606;SDS011;29197;44.788;10.366;2023-11-19T10:02:07;10.45;;;7.35;;
43606;SDS011;29197;44.788;10.366;2023-11-19T10:04:57;8.85;;;6.47;;
43606;SDS011;29197;44.788;10.366;2023-11-19T10:07:48;9.73;;;6.85;;
43606;SDS011;29197;44.788;10.366;2023-11-19T10:10:37;9.32;;;6.63;;
43606;SDS011;29197;44.788;10.366;2023-11-19T10:13:26;11.15;;;7.30;;
43606;SDS011;29197;44.788;10.366;2023-11-19T10:16:18;10.88;;;6.68;;
43606;SDS011;29197;44.788;10.366;2023-11-19T10:19:06;13.65;;;8.20;;
43606;SDS011;29197;44.788;10.366;2023-11-19T10:21:55;11.38;;;7.75;;
43606;SDS011;29197;44.788;10.366;2023-11-19T10:24:45;9.88;;;6.88;;
43606;SDS011;29197;44.788;10.366;2023-11-19T10:27:41;10.63;;;6.18;;
43606;SDS011;29197;44.788;10.366;2023-11-19T10:30:31;12.32;;;6.50;;
43606;SDS011;29197;44.788;10.366;2023-11-19T10:33:21;9.77;;;6.40;;
43606;SDS011;29197;44.788;10.366;2023-11-19T10:36:09;8.90;;;5.95;;
43606;SDS011;29197;44.788;10.366;2023-11-19T10:38:59;8.75;;;6.85;;
43606;SDS011;29197;44.788;10.366;2023-11-19T10:41:50;10.63;;;6.68;;
43606;SDS011;29197;44.788;10.366;2023-11-19T10:44:42;10.15;;;6.80;;
43606;SDS011;29197;44.788;10.366;2023-11-19T10:47:30;13.27;;;6.38;;
43606;SDS011;29197;44.788;10.366;2023-11-19T10:50:25;9.85;;;6.43;;
43606;SDS011;29197;44.788;10.366;2023-11-19T10:53:14;11.00;;;7.10;;
43606;SDS011;29197;44.788;10.366;2023-11-19T10:56:03;11.35;;;7.15;;
43606;SDS011;29197;44.788;10.366;2023-11-19T10:58:56;12.60;;;6.47;;
43606;SDS011;29197;44.788;10.366;2023-11-19T11:01:47;8.40;;;6.10;;
43606;SDS011;29197;44.788;10.366;2023-11-19T11:04:39;10.77;;;7.00;;
43606;SDS011;29197;44.788;10.366;2023-11-19T11:07:28;13.30;;;8.25;;
43606;SDS011;29197;44.788;10.366;2023-11-19T11:10:27;9.73;;;7.03;;
43606;SDS011;29197;44.788;10.366;2023-11-19T11:13:20;13.98;;;8.32;;
43606;SDS011;29197;44.788;10.366;2023-11-19T11:16:12;14.45;;;9.15;;
43606;SDS011;29197;44.788;10.366;2023-11-19T11:19:02;12.90;;;8.52;;
43606;SDS011;29197;44.788;10.366;2023-11-19T11:21:53;11.98;;;8.35;;
43606;SDS011;29197;44.788;10.366;2023-11-19T11:28:13;15.35;;;8.68;;
43606;SDS011;29197;44.788;10.366;2023-11-19T11:31:15;15.07;;;10.23;;
43606;SDS011;29197;44.788;10.366;2023-11-19T11:34:07;14.07;;;8.02;;
43606;SDS011;29197;44.788;10.366;2023-11-19T11:37:15;15.63;;;8.85;;
43606;SDS011;29197;44.788;10.366;2023-11-19T11:40:13;15.98;;;9.95;;
43606;SDS011;29197;44.788;10.366;2023-11-19T11:43:02;15.07;;;8.73;;
43606;SDS011;29197;44.788;10.366;2023-11-19T11:45:52;15.00;;;9.35;;
43606;SDS011;29197;44.788;10.366;2023-11-19T11:48:43;14.98;;;8.60;;
43606;SDS011;29197;44.788;10.366;2023-11-19T11:54:45;14.68;;;8.30;;
43606;SDS011;29197;44.788;10.366;2023-11-19T11:57:36;15.02;;;9.35;;
43606;SDS011;29197;44.788;10.366;2023-11-19T12:00:26;13.95;;;8.07;;
43606;SDS011;29197;44.788;10.366;2023-11-19T12:03:19;14.60;;;8.15;;
43606;SDS011;29197;44.788;10.366;2023-11-19T12:06:12;11.88;;;7.70;;
43606;SDS011;29197;44.788;10.366;2023-11-19T12:09:01;12.05;;;7.28;;
43606;SDS011;29197;44.788;10.366;2023-11-19T12:11:50;11.88;;;7.57;;
43606;SDS011;29197;44.788;10.366;2023-11-19T12:15:03;12.95;;;7.63;;
43606;SDS011;29197;44.788;10.366;2023-11-19T12:17:53;12.05;;;6.47;;
43606;SDS011;29197;44.788;10.366;2023-11-19T12:20:42;13.70;;;7.57;;
43606;SDS011;29197;44.788;10.366;2023-11-19T12:23:32;12.25;;;6.70;;
43606;SDS011;29197;44.788;10.366;2023-11-19T12:26:30;11.55;;;7.40;;
43606;SDS011;29197;44.788;10.366;2023-11-19T12:29:20;11.45;;;7.68;;
43606;SDS011;29197;44.788;10.366;2023-11-19T12:32:09;14.32;;;7.72;;
43606;SDS011;29197;44.788;10.366;2023-11-19T12:35:01;10.77;;;6.75;;
43606;SDS011;29197;44.788;10.366;2023-11-19T12:37:50;9.43;;;6.10;;
43606;SDS011;29197;44.788;10.366;2023-11-19T12:40:41;10.75;;;6.43;;
43606;SDS011;29197;44.788;10.366;2023-11-19T12:43:29;12.88;;;5.35;;
43606;SDS011;29197;44.788;10.366;2023-11-19T12:46:19;10.55;;;6.75;;
43606;SDS011;29197;44.788;10.366;2023-11-19T12:49:10;11.40;;;6.82;;
43606;SDS011;29197;44.788;10.366;2023-11-19T12:52:00;11.57;;;6.53;;
43606;SDS011;29197;44.788;10.366;2023-11-19T12:54:49;8.43;;;4.57;;
43606;SDS011;29197;44.788;10.366;2023-11-19T12:57:40;9.43;;;5.13;;
43606;SDS011;29197;44.788;10.366;2023-11-19T13:00:29;6.82;;;4.28;;
43606;SDS011;29197;44.788;10.366;2023-11-19T13:03:28;7.35;;;4.95;;
43606;SDS011;29197;44.788;10.366;2023-11-19T13:06:18;9.73;;;5.07;;
43606;SDS011;29197;44.788;10.366;2023-11-19T13:09:08;8.10;;;5.25;;
43606;SDS011;29197;44.788;10.366;2023-11-19T13:11:59;7.75;;;4.60;;
43606;SDS011;29197;44.788;10.366;2023-11-19T13:15:02;9.73;;;5.20;;
43606;SDS011;29197;44.788;10.366;2023-11-19T13:17:51;8.65;;;5.32;;
43606;SDS011;29197;44.788;10.366;2023-11-19T13:20:39;6.32;;;4.10;;
43606;SDS011;29197;44.788;10.366;2023-11-19T13:23:28;9.55;;;3.90;;
43606;SDS011;29197;44.788;10.366;2023-11-19T13:26:18;7.63;;;4.53;;
43606;SDS011;29197;44.788;10.366;2023-11-19T13:29:07;10.98;;;4.97;;
43606;SDS011;29197;44.788;10.366;2023-11-19T13:31:58;8.48;;;4.75;;
43606;SDS011;29197;44.788;10.366;2023-11-19T13:34:47;7.93;;;4.78;;
43606;SDS011;29197;44.788;10.366;2023-11-19T13:37:36;7.03;;;4.60;;
43606;SDS011;29197;44.788;10.366;2023-11-19T13:40:25;9.98;;;6.00;;
43606;SDS011;29197;44.788;10.366;2023-11-19T13:43:14;8.55;;;5.30;;
43606;SDS011;29197;44.788;10.366;2023-11-19T13:46:03;6.35;;;4.00;;
43606;SDS011;29197;44.788;10.366;2023-11-19T13:48:53;8.60;;;4.78;;
43606;SDS011;29197;44.788;10.366;2023-11-19T13:51:42;6.43;;;4.50;;
43606;SDS011;29197;44.788;10.366;2023-11-19T13:54:32;6.78;;;4.20;;
43606;SDS011;29197;44.788;10.366;2023-11-19T13:57:21;6.85;;;4.30;;
43606;SDS011;29197;44.788;10.366;2023-11-19T14:00:10;5.47;;;3.97;;
43606;SDS011;29197;44.788;10.366;2023-11-19T14:03:00;9.38;;;4.68;;
43606;SDS011;29197;44.788;10.366;2023-11-19T14:05:51;9.82;;;3.72;;
43606;SDS011;29197;44.788;10.366;2023-11-19T14:08:41;5.55;;;3.63;;
43606;SDS011;29197;44.788;10.366;2023-11-19T14:11:30;5.40;;;3.63;;
43606;SDS011;29197;44.788;10.366;2023-11-19T14:14:19;4.80;;;3.50;;
43606;SDS011;29197;44.788;10.366;2023-11-19T14:17:07;5.30;;;3.75;;
43606;SDS011;29197;44.788;10.366;2023-11-19T14:20:00;6.20;;;4.15;;
43606;SDS011;29197;44.788;10.366;2023-11-19T14:22:52;6.03;;;3.88;;
43606;SDS011;29197;44.788;10.366;2023-11-19T14:25:41;8.07;;;4.07;;
43606;SDS011;29197;44.788;10.366;2023-11-19T14:28:31;6.47;;;4.13;;
43606;SDS011;29197;44.788;10.366;2023-11-19T14:31:20;9.25;;;3.85;;
43606;SDS011;29197;44.788;10.366;2023-11-19T14:34:09;6.30;;;3.50;;
43606;SDS011;29197;44.788;10.366;2023-11-19T14:36:58;5.05;;;3.28;;
43606;SDS011;29197;44.788;10.366;2023-11-19T14:39:48;7.57;;;3.60;;
43606;SDS011;29197;44.788;10.366;2023-11-19T14:42:37;6.28;;;3.38;;
43606;SDS011;29197;44.788;10.366;2023-11-19T14:45:26;8.02;;;4.30;;
43606;SDS011;29197;44.788;10.366;2023-11-19T14:48:24;6.00;;;4.03;;
43606;SDS011;29197;44.788;10.366;2023-11-19T14:51:14;7.53;;;4.32;;
43606;SDS011;29197;44.788;10.366;2023-11-19T14:54:03;6.05;;;4.10;;
43606;SDS011;29197;44.788;10.366;2023-11-19T14:56:53;6.68;;;3.63;;
43606;SDS011;29197;44.788;10.366;2023-11-19T14:59:42;6.38;;;4.13;;
43606;SDS011;29197;44.788;10.366;2023-11-19T15:02:31;9.45;;;5.40;;
43606;SDS011;29197;44.788;10.366;2023-11-19T15:05:20;6.50;;;4.00;;
43606;SDS011;29197;44.788;10.366;2023-11-19T15:08:09;7.50;;;4.40;;
43606;SDS011;29197;44.788;10.366;2023-11-19T15:10:58;6.07;;;4.03;;
43606;SDS011;29197;44.788;10.366;2023-11-19T15:13:51;8.32;;;4.35;;
43606;SDS011;29197;44.788;10.366;2023-11-19T15:16:40;6.20;;;4.15;;
43606;SDS011;29197;44.788;10.366;2023-11-19T15:19:29;9.15;;;4.97;;
43606;SDS011;29197;44.788;10.366;2023-11-19T15:22:18;11.38;;;4.93;;
43606;SDS011;29197;44.788;10.366;2023-11-19T15:25:07;11.68;;;5.38;;
43606;SDS011;29197;44.788;10.366;2023-11-19T15:27:57;7.70;;;5.35;;
43606;SDS011;29197;44.788;10.366;2023-11-19T15:30:47;8.90;;;5.22;;
43606;SDS011;29197;44.788;10.366;2023-11-19T15:33:36;10.65;;;5.07;;
43606;SDS011;29197;44.788;10.366;2023-11-19T15:36:25;13.25;;;6.55;;
43606;SDS011;29197;44.788;10.366;2023-11-19T15:39:14;10.35;;;5.55;;
43606;SDS011;29197;44.788;10.366;2023-11-19T15:42:03;9.48;;;6.00;;
43606;SDS011;29197;44.788;10.366;2023-11-19T15:44:52;8.95;;;6.20;;
43606;SDS011;29197;44.788;10.366;2023-11-19T15:47:42;9.95;;;5.18;;
43606;SDS011;29197;44.788;10.366;2023-11-19T15:50:31;10.48;;;5.72;;
43606;SDS011;29197;44.788;10.366;2023-11-19T15:53:20;8.95;;;5.82;;
43606;SDS011;29197;44.788;10.366;2023-11-19T15:56:09;12.55;;;5.82;;
43606;SDS011;29197;44.788;10.366;2023-11-19T15:58:58;8.68;;;4.93;;
43606;SDS011;29197;44.788;10.366;2023-11-19T16:01:47;9.75;;;5.90;;
43606;SDS011;29197;44.788;10.366;2023-11-19T16:04:37;8.10;;;4.30;;
43606;SDS011;29197;44.788;10.366;2023-11-19T16:07:26;8.18;;;5.60;;
43606;SDS011;29197;44.788;10.366;2023-11-19T16:10:16;12.05;;;5.38;;
43606;SDS011;29197;44.788;10.366;2023-11-19T16:13:10;13.73;;;7.10;;
43606;SDS011;29197;44.788;10.366;2023-11-19T16:15:59;12.25;;;7.00;;
43606;SDS011;29197;44.788;10.366;2023-11-19T16:18:48;14.15;;;6.78;;
43606;SDS011;29197;44.788;10.366;2023-11-19T16:21:38;11.30;;;5.93;;
43606;SDS011;29197;44.788;10.366;2023-11-19T16:24:27;7.85;;;5.45;;
43606;SDS011;29197;44.788;10.366;2023-11-19T16:27:16;8.68;;;5.90;;
43606;SDS011;29197;44.788;10.366;2023-11-19T16:30:08;8.88;;;5.47;;
43606;SDS011;29197;44.788;10.366;2023-11-19T16:32:57;9.35;;;5.60;;
43606;SDS011;29197;44.788;10.366;2023-11-19T16:35:46;8.70;;;5.53;;
43606;SDS011;29197;44.788;10.366;2023-11-19T16:38:36;10.57;;;5.80;;
43606;SDS011;29197;44.788;10.366;2023-11-19T16:41:25;9.20;;;5.05;;
43606;SDS011;29197;44.788;10.366;2023-11-19T16:44:27;12.30;;;5.85;;
43606;SDS011;29197;44.788;10.366;2023-11-19T16:47:16;9.60;;;5.20;;
43606;SDS011;29197;44.788;10.366;2023-11-19T16:50:05;11.57;;;6.38;;
43606;SDS011;29197;44.788;10.366;2023-11-19T16:52:54;10.23;;;5.93;;